KAC107 OKKK-OTHH
Flight info
| Callsign | KAC107 |
|---|---|
| Flight time | N/A |
| Altitude | 7000 |
| Route | BOXIK5F BOXIK B416 IMDOX P975 LONOS L703 HAYYA HAYYA2V |
| Aircraft | DA42/L-SBDGRY/S |
Departure
| Time | 2026-05-07 00:20 |
|---|---|
| Airport | Kuwait International Airport (OKKK) |
Arrival
| Time | N/A |
|---|---|
| Airport | Hamad International Airport (OTHH) |
| Time | Latitude | Longitude | Altitude | Speed | Heading |
|---|---|---|---|---|---|
| 2026-05-07 00:04 | 29.23624 | 47.96882 | 161 ft | 0 kts | 154° |
| 2026-05-07 00:12 | 29.23618 | 47.96885 | 162 ft | 5 kts | 160° |
| 2026-05-07 00:13 | 29.23567 | 47.96838 | 162 ft | 12 kts | 248° |
| 2026-05-07 00:13 | 29.23540 | 47.96758 | 165 ft | 10 kts | 259° |
| 2026-05-07 00:13 | 29.23514 | 47.96703 | 168 ft | 6 kts | 200° |
| 2026-05-07 00:13 | 29.23480 | 47.96706 | 170 ft | 5 kts | 164° |
| 2026-05-07 00:14 | 29.23416 | 47.96738 | 172 ft | 14 kts | 153° |
| 2026-05-07 00:14 | 29.23306 | 47.96803 | 172 ft | 22 kts | 154° |
| 2026-05-07 00:14 | 29.23145 | 47.96877 | 169 ft | 28 kts | 156° |
| 2026-05-07 00:14 | 29.22969 | 47.96976 | 164 ft | 26 kts | 154° |
| 2026-05-07 00:15 | 29.22816 | 47.97058 | 164 ft | 22 kts | 155° |
| 2026-05-07 00:15 | 29.22684 | 47.97129 | 164 ft | 20 kts | 157° |
| 2026-05-07 00:15 | 29.22565 | 47.97189 | 163 ft | 18 kts | 154° |
| 2026-05-07 00:15 | 29.22450 | 47.97250 | 163 ft | 18 kts | 155° |
| 2026-05-07 00:16 | 29.22338 | 47.97315 | 163 ft | 18 kts | 157° |
| 2026-05-07 00:16 | 29.22229 | 47.97369 | 163 ft | 17 kts | 153° |
| 2026-05-07 00:16 | 29.22126 | 47.97424 | 163 ft | 16 kts | 154° |
| 2026-05-07 00:16 | 29.22024 | 47.97478 | 162 ft | 17 kts | 158° |
| 2026-05-07 00:17 | 29.21896 | 47.97547 | 162 ft | 23 kts | 154° |
| 2026-05-07 00:17 | 29.21743 | 47.97631 | 163 ft | 25 kts | 156° |
| 2026-05-07 00:17 | 29.21602 | 47.97707 | 164 ft | 21 kts | 150° |
| 2026-05-07 00:17 | 29.21483 | 47.97768 | 165 ft | 18 kts | 155° |
| 2026-05-07 00:18 | 29.21375 | 47.97825 | 166 ft | 16 kts | 156° |
| 2026-05-07 00:18 | 29.21273 | 47.97844 | 166 ft | 15 kts | 226° |
| 2026-05-07 00:18 | 29.21256 | 47.97735 | 168 ft | 13 kts | 283° |
| 2026-05-07 00:18 | 29.21292 | 47.97660 | 175 ft | 6 kts | 298° |
| 2026-05-07 00:19 | 29.21306 | 47.97636 | 176 ft | 3 kts | 311° |
| 2026-05-07 00:19 | 29.21350 | 47.97594 | 176 ft | 22 kts | 328° |
| 2026-05-07 00:19 | 29.21641 | 47.97436 | 174 ft | 70 kts | 336° |
| 2026-05-07 00:19 | 29.22174 | 47.97147 | 271 ft | 92 kts | 335° |
| 2026-05-07 00:20 | 29.22752 | 47.96799 | 430 ft | 99 kts | 333° |
| 2026-05-07 00:20 | 29.23375 | 47.96389 | 633 ft | 104 kts | 335° |
| 2026-05-07 00:20 | 29.24073 | 47.96264 | 803 ft | 107 kts | 14° |
| 2026-05-07 00:20 | 29.24581 | 47.96879 | 958 ft | 118 kts | 73° |
| 2026-05-07 00:21 | 29.24386 | 47.97772 | 1288 ft | 118 kts | 117° |
| 2026-05-07 00:21 | 29.23834 | 47.98480 | 1506 ft | 122 kts | 126° |
| 2026-05-07 00:21 | 29.23271 | 47.99188 | 1755 ft | 121 kts | 130° |
| 2026-05-07 00:21 | 29.22661 | 47.99836 | 2098 ft | 114 kts | 137° |
| 2026-05-07 00:22 | 29.22160 | 48.00600 | 2166 ft | 130 kts | 135° |
| 2026-05-07 00:22 | 29.21607 | 48.01346 | 2466 ft | 122 kts | 134° |
| 2026-05-07 00:22 | 29.21001 | 48.02100 | 2604 ft | 130 kts | 138° |
| 2026-05-07 00:22 | 29.20372 | 48.02908 | 2740 ft | 141 kts | 129° |
| 2026-05-07 00:23 | 29.19792 | 48.03793 | 3032 ft | 134 kts | 106° |
| 2026-05-07 00:23 | 29.19578 | 48.04763 | 3279 ft | 119 kts | 77° |
| 2026-05-07 00:23 | 29.19724 | 48.05652 | 3548 ft | 116 kts | 75° |
| 2026-05-07 00:23 | 29.19490 | 48.06566 | 3775 ft | 131 kts | 121° |
| 2026-05-07 00:24 | 29.18737 | 48.07201 | 4037 ft | 134 kts | 148° |
| 2026-05-07 00:24 | 29.18051 | 48.07872 | 4284 ft | 127 kts | 122° |
| 2026-05-07 00:24 | 29.17581 | 48.08696 | 4507 ft | 123 kts | 116° |
| 2026-05-07 00:24 | 29.17140 | 48.09530 | 4717 ft | 121 kts | 117° |
| 2026-05-07 00:25 | 29.16712 | 48.10348 | 4898 ft | 118 kts | 118° |
| 2026-05-07 00:25 | 29.16295 | 48.11149 | 5085 ft | 117 kts | 118° |
| 2026-05-07 00:25 | 29.15881 | 48.11944 | 5283 ft | 116 kts | 119° |
| 2026-05-07 00:25 | 29.15469 | 48.12733 | 5498 ft | 115 kts | 120° |
| 2026-05-07 00:26 | 29.15057 | 48.13516 | 5664 ft | 115 kts | 120° |
| 2026-05-07 00:26 | 29.14652 | 48.14293 | 5826 ft | 116 kts | 121° |
| 2026-05-07 00:26 | 29.14238 | 48.15085 | 5992 ft | 116 kts | 121° |
| 2026-05-07 00:26 | 29.13827 | 48.15873 | 6159 ft | 115 kts | 122° |
| 2026-05-07 00:27 | 29.13418 | 48.16655 | 6320 ft | 115 kts | 122° |
| 2026-05-07 00:27 | 29.13006 | 48.17441 | 6472 ft | 115 kts | 122° |
| 2026-05-07 00:27 | 29.12590 | 48.18232 | 6647 ft | 116 kts | 123° |
| 2026-05-07 00:27 | 29.12177 | 48.19020 | 6804 ft | 116 kts | 123° |
| 2026-05-07 00:28 | 29.11760 | 48.19816 | 6912 ft | 122 kts | 123° |
| 2026-05-07 00:28 | 29.11308 | 48.20674 | 6912 ft | 127 kts | 123° |
| 2026-05-07 00:28 | 29.10855 | 48.21535 | 6912 ft | 126 kts | 123° |
| 2026-05-07 00:28 | 29.10412 | 48.22382 | 6905 ft | 125 kts | 123° |
| 2026-05-07 00:29 | 29.09969 | 48.23230 | 6906 ft | 123 kts | 123° |
| 2026-05-07 00:29 | 29.09528 | 48.24071 | 6909 ft | 123 kts | 123° |
| 2026-05-07 00:30 | 29.08205 | 48.26596 | 6906 ft | 122 kts | 123° |
| 2026-05-07 00:30 | 29.07768 | 48.27431 | 6907 ft | 123 kts | 123° |
| 2026-05-07 00:30 | 29.07331 | 48.28263 | 6903 ft | 122 kts | 123° |
| 2026-05-07 00:30 | 29.06894 | 48.29094 | 6899 ft | 122 kts | 123° |
| 2026-05-07 00:31 | 29.06458 | 48.29923 | 6901 ft | 121 kts | 123° |
| 2026-05-07 00:31 | 29.06023 | 48.30752 | 6902 ft | 121 kts | 123° |
| 2026-05-07 00:31 | 29.05588 | 48.31580 | 6903 ft | 122 kts | 123° |
| 2026-05-07 00:31 | 29.05150 | 48.32415 | 6906 ft | 122 kts | 123° |
| 2026-05-07 00:32 | 29.04711 | 48.33248 | 6902 ft | 122 kts | 123° |
| 2026-05-07 00:32 | 29.04276 | 48.34076 | 6902 ft | 121 kts | 123° |
| 2026-05-07 00:32 | 29.03843 | 48.34903 | 6900 ft | 121 kts | 122° |
| 2026-05-07 00:32 | 29.03564 | 48.35798 | 6905 ft | 121 kts | 116° |
| 2026-05-07 00:33 | 29.03181 | 48.36648 | 6914 ft | 120 kts | 120° |
| 2026-05-07 00:33 | 29.02787 | 48.37486 | 6911 ft | 120 kts | 120° |
| 2026-05-07 00:33 | 29.02392 | 48.38331 | 6916 ft | 120 kts | 120° |
| 2026-05-07 00:33 | 29.01994 | 48.39172 | 6911 ft | 120 kts | 121° |
| 2026-05-07 00:34 | 29.01594 | 48.40017 | 6909 ft | 121 kts | 121° |
| 2026-05-07 00:34 | 29.01196 | 48.40862 | 6914 ft | 122 kts | 120° |
| 2026-05-07 00:34 | 29.00793 | 48.41716 | 6910 ft | 123 kts | 120° |
| 2026-05-07 00:34 | 29.00386 | 48.42575 | 6912 ft | 123 kts | 120° |
| 2026-05-07 00:35 | 28.99975 | 48.43440 | 6916 ft | 124 kts | 121° |
| 2026-05-07 00:35 | 28.99562 | 48.44307 | 6911 ft | 124 kts | 121° |
| 2026-05-07 00:35 | 28.99150 | 48.45173 | 6912 ft | 123 kts | 120° |
| 2026-05-07 00:35 | 28.98742 | 48.46034 | 6912 ft | 123 kts | 121° |
| 2026-05-07 00:36 | 28.98331 | 48.46897 | 6916 ft | 123 kts | 121° |
| 2026-05-07 00:36 | 28.97922 | 48.47755 | 6909 ft | 122 kts | 120° |
| 2026-05-07 00:36 | 28.97521 | 48.48612 | 6911 ft | 122 kts | 120° |
| 2026-05-07 00:36 | 28.97131 | 48.49454 | 6902 ft | 122 kts | 120° |
| 2026-05-07 00:37 | 28.96738 | 48.50312 | 6904 ft | 122 kts | 120° |
| 2026-05-07 00:37 | 28.96344 | 48.51171 | 6911 ft | 123 kts | 120° |
| 2026-05-07 00:37 | 28.95949 | 48.52034 | 6905 ft | 123 kts | 119° |
| 2026-05-07 00:37 | 28.95559 | 48.52899 | 6907 ft | 122 kts | 119° |
| 2026-05-07 00:38 | 28.95174 | 48.53762 | 6912 ft | 122 kts | 119° |
| 2026-05-07 00:38 | 28.94790 | 48.54625 | 6910 ft | 122 kts | 118° |
| 2026-05-07 00:38 | 28.94412 | 48.55481 | 6901 ft | 122 kts | 118° |
| 2026-05-07 00:38 | 28.94030 | 48.56351 | 6902 ft | 123 kts | 118° |
| 2026-05-07 00:39 | 28.93647 | 48.57226 | 6903 ft | 123 kts | 118° |
| 2026-05-07 00:39 | 28.93265 | 48.58102 | 6903 ft | 123 kts | 118° |
| 2026-05-07 00:39 | 28.92887 | 48.58974 | 6902 ft | 122 kts | 118° |
| 2026-05-07 00:39 | 28.92507 | 48.59850 | 6904 ft | 124 kts | 118° |
| 2026-05-07 00:40 | 28.92125 | 48.60729 | 6903 ft | 123 kts | 118° |
| 2026-05-07 00:40 | 28.91746 | 48.61604 | 6903 ft | 123 kts | 118° |
| 2026-05-07 00:40 | 28.91366 | 48.62478 | 6903 ft | 123 kts | 118° |
| 2026-05-07 00:40 | 28.90982 | 48.63357 | 6905 ft | 125 kts | 118° |
| 2026-05-07 00:41 | 28.90597 | 48.64246 | 6911 ft | 126 kts | 118° |
| 2026-05-07 00:41 | 28.90217 | 48.65127 | 6905 ft | 125 kts | 118° |
| 2026-05-07 00:41 | 28.89830 | 48.66020 | 6906 ft | 126 kts | 118° |
| 2026-05-07 00:41 | 28.89442 | 48.66914 | 6908 ft | 126 kts | 118° |
| 2026-05-07 00:42 | 28.89055 | 48.67812 | 6913 ft | 126 kts | 118° |
| 2026-05-07 00:42 | 28.88679 | 48.68686 | 7006 ft | 116 kts | 118° |
| 2026-05-07 00:42 | 28.88344 | 48.69482 | 7138 ft | 107 kts | 118° |
| 2026-05-07 00:42 | 28.88039 | 48.70225 | 7278 ft | 100 kts | 117° |
| 2026-05-07 00:43 | 28.87772 | 48.70934 | 7368 ft | 98 kts | 110° |
| 2026-05-07 00:43 | 28.87588 | 48.71685 | 7511 ft | 98 kts | 123° |
| 2026-05-07 00:43 | 28.87156 | 48.72323 | 7733 ft | 102 kts | 133° |
| 2026-05-07 00:43 | 28.86714 | 48.73033 | 7876 ft | 117 kts | 128° |
| 2026-05-07 00:44 | 28.86227 | 48.73827 | 7961 ft | 125 kts | 129° |
| 2026-05-07 00:44 | 28.85720 | 48.74638 | 8037 ft | 127 kts | 130° |
| 2026-05-07 00:44 | 28.85107 | 48.75346 | 8118 ft | 126 kts | 149° |
| 2026-05-07 00:44 | 28.84385 | 48.75914 | 8196 ft | 127 kts | 150° |
| 2026-05-07 00:45 | 28.83669 | 48.76495 | 8271 ft | 129 kts | 149° |
| 2026-05-07 00:45 | 28.82940 | 48.77104 | 8348 ft | 130 kts | 149° |
| 2026-05-07 00:45 | 28.82212 | 48.77720 | 8423 ft | 131 kts | 148° |
| 2026-05-07 00:45 | 28.81480 | 48.78345 | 8499 ft | 131 kts | 148° |
| 2026-05-07 00:46 | 28.80767 | 48.78952 | 8566 ft | 125 kts | 148° |
| 2026-05-07 00:46 | 28.80190 | 48.79686 | 8631 ft | 125 kts | 125° |
| 2026-05-07 00:46 | 28.79767 | 48.80537 | 8703 ft | 121 kts | 124° |
| 2026-05-07 00:46 | 28.79361 | 48.81370 | 8773 ft | 119 kts | 124° |
| 2026-05-07 00:47 | 28.78962 | 48.82190 | 8840 ft | 118 kts | 124° |
| 2026-05-07 00:47 | 28.78566 | 48.83001 | 8918 ft | 116 kts | 124° |
| 2026-05-07 00:47 | 28.78171 | 48.83807 | 8993 ft | 116 kts | 124° |
| 2026-05-07 00:47 | 28.77778 | 48.84610 | 9068 ft | 116 kts | 124° |
| 2026-05-07 00:48 | 28.77385 | 48.85412 | 9143 ft | 116 kts | 124° |
| 2026-05-07 00:48 | 28.76992 | 48.86216 | 9219 ft | 116 kts | 124° |
| 2026-05-07 00:48 | 28.76596 | 48.87021 | 9282 ft | 117 kts | 124° |
| 2026-05-07 00:48 | 28.76201 | 48.87827 | 9362 ft | 117 kts | 124° |
| 2026-05-07 00:49 | 28.75803 | 48.88637 | 9438 ft | 117 kts | 125° |
| 2026-05-07 00:49 | 28.75405 | 48.89449 | 9515 ft | 117 kts | 124° |
| 2026-05-07 00:49 | 28.75013 | 48.90249 | 9589 ft | 118 kts | 124° |
| 2026-05-07 00:49 | 28.74613 | 48.91065 | 9665 ft | 118 kts | 124° |
| 2026-05-07 00:50 | 28.74210 | 48.91884 | 9743 ft | 119 kts | 124° |
| 2026-05-07 00:50 | 28.73807 | 48.92705 | 9818 ft | 119 kts | 124° |
| 2026-05-07 00:50 | 28.73402 | 48.93530 | 9895 ft | 120 kts | 124° |
| 2026-05-07 00:50 | 28.72995 | 48.94360 | 9970 ft | 120 kts | 125° |
| 2026-05-07 00:51 | 28.72586 | 48.95193 | 10047 ft | 121 kts | 125° |
| 2026-05-07 00:51 | 28.72176 | 48.96028 | 10122 ft | 121 kts | 125° |
| 2026-05-07 00:51 | 28.71764 | 48.96864 | 10197 ft | 121 kts | 125° |
| 2026-05-07 00:51 | 28.71353 | 48.97700 | 10272 ft | 121 kts | 125° |
| 2026-05-07 00:52 | 28.70942 | 48.98536 | 10349 ft | 121 kts | 125° |
| 2026-05-07 00:52 | 28.70531 | 48.99374 | 10424 ft | 121 kts | 125° |
| 2026-05-07 00:52 | 28.70123 | 49.00202 | 10499 ft | 121 kts | 125° |
| 2026-05-07 00:52 | 28.69709 | 49.01043 | 10576 ft | 122 kts | 125° |
| 2026-05-07 00:53 | 28.69294 | 49.01885 | 10651 ft | 122 kts | 126° |
| 2026-05-07 00:53 | 28.68877 | 49.02735 | 10725 ft | 124 kts | 125° |
| 2026-05-07 00:53 | 28.68460 | 49.03586 | 10804 ft | 123 kts | 125° |
| 2026-05-07 00:53 | 28.68040 | 49.04435 | 10878 ft | 124 kts | 126° |
| 2026-05-07 00:54 | 28.67620 | 49.05292 | 10955 ft | 124 kts | 125° |
| 2026-05-07 00:54 | 28.67198 | 49.06146 | 11028 ft | 123 kts | 126° |
| 2026-05-07 00:54 | 28.66776 | 49.06998 | 11111 ft | 124 kts | 126° |
| 2026-05-07 00:54 | 28.66355 | 49.07853 | 11179 ft | 124 kts | 126° |
| 2026-05-07 00:55 | 28.65935 | 49.08708 | 11254 ft | 124 kts | 126° |
| 2026-05-07 00:55 | 28.65514 | 49.09564 | 11331 ft | 124 kts | 126° |
| 2026-05-07 00:55 | 28.65093 | 49.10421 | 11407 ft | 124 kts | 126° |
| 2026-05-07 00:55 | 28.64668 | 49.11283 | 11485 ft | 125 kts | 126° |
| 2026-05-07 00:56 | 28.64249 | 49.12131 | 11557 ft | 125 kts | 126° |
| 2026-05-07 00:56 | 28.63824 | 49.12993 | 11635 ft | 126 kts | 126° |
| 2026-05-07 00:56 | 28.63396 | 49.13861 | 11709 ft | 126 kts | 126° |
| 2026-05-07 00:56 | 28.62966 | 49.14732 | 11786 ft | 127 kts | 126° |
| 2026-05-07 00:57 | 28.62534 | 49.15610 | 11864 ft | 128 kts | 126° |
| 2026-05-07 00:57 | 28.62097 | 49.16492 | 11895 ft | 130 kts | 126° |
| 2026-05-07 00:57 | 28.61642 | 49.17409 | 11902 ft | 135 kts | 126° |
| 2026-05-07 00:57 | 28.61175 | 49.18353 | 11907 ft | 139 kts | 126° |
| 2026-05-07 00:58 | 28.60857 | 49.18996 | 11904 ft | 141 kts | 126° |
| 2026-05-07 00:58 | 28.60370 | 49.19981 | 11905 ft | 144 kts | 126° |
| 2026-05-07 00:58 | 28.59877 | 49.20980 | 11911 ft | 145 kts | 126° |
| 2026-05-07 00:58 | 28.59380 | 49.21987 | 11909 ft | 146 kts | 126° |
| 2026-05-07 00:59 | 28.58350 | 49.24008 | 11911 ft | 147 kts | 134° |
| 2026-05-07 00:59 | 28.57596 | 49.24729 | 11913 ft | 139 kts | 159° |
| 2026-05-07 00:59 | 28.56736 | 49.25237 | 11917 ft | 140 kts | 160° |
| 2026-05-07 01:00 | 28.55867 | 49.25741 | 11916 ft | 140 kts | 160° |
| 2026-05-07 01:00 | 28.54997 | 49.26241 | 11916 ft | 140 kts | 160° |
| 2026-05-07 01:00 | 28.54124 | 49.26745 | 11917 ft | 140 kts | 160° |
| 2026-05-07 01:00 | 28.53263 | 49.27241 | 11917 ft | 141 kts | 160° |
| 2026-05-07 01:01 | 28.52396 | 49.27742 | 11916 ft | 140 kts | 160° |
| 2026-05-07 01:01 | 28.51525 | 49.28247 | 11917 ft | 141 kts | 160° |
| 2026-05-07 01:01 | 28.50668 | 49.28775 | 11913 ft | 143 kts | 151° |
| 2026-05-07 01:01 | 28.49879 | 49.29466 | 11917 ft | 144 kts | 148° |
| 2026-05-07 01:02 | 28.49093 | 49.30171 | 11916 ft | 144 kts | 148° |
| 2026-05-07 01:02 | 28.48314 | 49.30869 | 11916 ft | 142 kts | 149° |
| 2026-05-07 01:02 | 28.47535 | 49.31567 | 11916 ft | 143 kts | 148° |
| 2026-05-07 01:02 | 28.46754 | 49.32266 | 11915 ft | 143 kts | 148° |
| 2026-05-07 01:03 | 28.45973 | 49.32963 | 11915 ft | 143 kts | 148° |
| 2026-05-07 01:03 | 28.45189 | 49.33664 | 11915 ft | 143 kts | 148° |
| 2026-05-07 01:03 | 28.44413 | 49.34358 | 11916 ft | 143 kts | 149° |
| 2026-05-07 01:03 | 28.43624 | 49.35062 | 11917 ft | 143 kts | 148° |
| 2026-05-07 01:04 | 28.42847 | 49.35755 | 11918 ft | 144 kts | 148° |
| 2026-05-07 01:04 | 28.42059 | 49.36458 | 11913 ft | 144 kts | 148° |
| 2026-05-07 01:04 | 28.41273 | 49.37163 | 11912 ft | 144 kts | 148° |
| 2026-05-07 01:04 | 28.40485 | 49.37865 | 11911 ft | 144 kts | 148° |
| 2026-05-07 01:05 | 28.39695 | 49.38568 | 11905 ft | 144 kts | 148° |
| 2026-05-07 01:05 | 28.38906 | 49.39272 | 11908 ft | 144 kts | 148° |
| 2026-05-07 01:05 | 28.38118 | 49.39975 | 11905 ft | 144 kts | 148° |
| 2026-05-07 01:05 | 28.37331 | 49.40677 | 11909 ft | 144 kts | 148° |
| 2026-05-07 01:06 | 28.36541 | 49.41381 | 11905 ft | 144 kts | 148° |
| 2026-05-07 01:06 | 28.35753 | 49.42083 | 11908 ft | 144 kts | 148° |
| 2026-05-07 01:06 | 28.34963 | 49.42787 | 11905 ft | 144 kts | 148° |
| 2026-05-07 01:06 | 28.34173 | 49.43491 | 11906 ft | 144 kts | 148° |
| 2026-05-07 01:07 | 28.33397 | 49.44182 | 11910 ft | 144 kts | 148° |
| 2026-05-07 01:07 | 28.32611 | 49.44882 | 11910 ft | 144 kts | 148° |
| 2026-05-07 01:07 | 28.31826 | 49.45581 | 11912 ft | 143 kts | 149° |
| 2026-05-07 01:07 | 28.31041 | 49.46280 | 11909 ft | 143 kts | 149° |
| 2026-05-07 01:08 | 28.30257 | 49.46978 | 11910 ft | 143 kts | 148° |
| 2026-05-07 01:08 | 28.29473 | 49.47676 | 11900 ft | 144 kts | 149° |
| 2026-05-07 01:08 | 28.28687 | 49.48374 | 11901 ft | 143 kts | 148° |
| 2026-05-07 01:08 | 28.27899 | 49.49076 | 11896 ft | 144 kts | 148° |
| 2026-05-07 01:09 | 28.27112 | 49.49776 | 11900 ft | 143 kts | 149° |
| 2026-05-07 01:09 | 28.26337 | 49.50465 | 11900 ft | 144 kts | 149° |
| 2026-05-07 01:09 | 28.25549 | 49.51166 | 11901 ft | 144 kts | 149° |
| 2026-05-07 01:09 | 28.24758 | 49.51869 | 11895 ft | 145 kts | 148° |
| 2026-05-07 01:10 | 28.23965 | 49.52574 | 11900 ft | 144 kts | 148° |
| 2026-05-07 01:10 | 28.23176 | 49.53275 | 11902 ft | 144 kts | 149° |
| 2026-05-07 01:10 | 28.22389 | 49.53974 | 11903 ft | 143 kts | 149° |
| 2026-05-07 01:10 | 28.21604 | 49.54670 | 11894 ft | 143 kts | 148° |
| 2026-05-07 01:11 | 28.20821 | 49.55366 | 11894 ft | 142 kts | 148° |
| 2026-05-07 01:11 | 28.20042 | 49.56059 | 11894 ft | 142 kts | 148° |
| 2026-05-07 01:11 | 28.19266 | 49.56747 | 11899 ft | 141 kts | 148° |
| 2026-05-07 01:11 | 28.18493 | 49.57433 | 11896 ft | 141 kts | 148° |
| 2026-05-07 01:12 | 28.17732 | 49.58109 | 11891 ft | 141 kts | 148° |
| 2026-05-07 01:12 | 28.16962 | 49.58792 | 11897 ft | 141 kts | 148° |
| 2026-05-07 01:12 | 28.16191 | 49.59475 | 11895 ft | 140 kts | 148° |
| 2026-05-07 01:12 | 28.15421 | 49.60159 | 11885 ft | 141 kts | 148° |
| 2026-05-07 01:13 | 28.14651 | 49.60842 | 11886 ft | 141 kts | 148° |
| 2026-05-07 01:13 | 28.13881 | 49.61524 | 11883 ft | 140 kts | 148° |
| 2026-05-07 01:13 | 28.13112 | 49.62206 | 11886 ft | 140 kts | 148° |
| 2026-05-07 01:13 | 28.12342 | 49.62889 | 11887 ft | 140 kts | 148° |
| 2026-05-07 01:14 | 28.11575 | 49.63569 | 11888 ft | 140 kts | 148° |
| 2026-05-07 01:14 | 28.10806 | 49.64249 | 11889 ft | 140 kts | 148° |
| 2026-05-07 01:14 | 28.10038 | 49.64929 | 11888 ft | 140 kts | 148° |
| 2026-05-07 01:14 | 28.09269 | 49.65611 | 11885 ft | 140 kts | 148° |
| 2026-05-07 01:15 | 28.08501 | 49.66291 | 11889 ft | 140 kts | 148° |
| 2026-05-07 01:15 | 28.07734 | 49.66970 | 11888 ft | 140 kts | 148° |
| 2026-05-07 01:15 | 28.06976 | 49.67640 | 11888 ft | 139 kts | 148° |
| 2026-05-07 01:15 | 28.06209 | 49.68319 | 11882 ft | 140 kts | 148° |
| 2026-05-07 01:16 | 28.05441 | 49.68998 | 11883 ft | 140 kts | 148° |
| 2026-05-07 01:16 | 28.04674 | 49.69677 | 11883 ft | 140 kts | 148° |
| 2026-05-07 01:16 | 28.03905 | 49.70357 | 11883 ft | 141 kts | 148° |
| 2026-05-07 01:16 | 28.03135 | 49.71038 | 11886 ft | 140 kts | 148° |
| 2026-05-07 01:17 | 28.02367 | 49.71716 | 11884 ft | 140 kts | 148° |
| 2026-05-07 01:17 | 28.01597 | 49.72397 | 11882 ft | 140 kts | 148° |
| 2026-05-07 01:17 | 28.00829 | 49.73075 | 11882 ft | 140 kts | 148° |
| 2026-05-07 01:17 | 28.00057 | 49.73758 | 11881 ft | 141 kts | 148° |
| 2026-05-07 01:18 | 27.99285 | 49.74440 | 11884 ft | 140 kts | 148° |
| 2026-05-07 01:18 | 27.98517 | 49.75119 | 11881 ft | 140 kts | 148° |
| 2026-05-07 01:18 | 27.97759 | 49.75788 | 11883 ft | 140 kts | 148° |
| 2026-05-07 01:18 | 27.96989 | 49.76467 | 11879 ft | 140 kts | 148° |
| 2026-05-07 01:19 | 27.96221 | 49.77145 | 11883 ft | 140 kts | 148° |
| 2026-05-07 01:19 | 27.95455 | 49.77822 | 11883 ft | 140 kts | 148° |
| 2026-05-07 01:19 | 27.94689 | 49.78498 | 11882 ft | 140 kts | 148° |
| 2026-05-07 01:19 | 27.93919 | 49.79177 | 11876 ft | 140 kts | 148° |
| 2026-05-07 01:20 | 27.93151 | 49.79855 | 11876 ft | 140 kts | 148° |
| 2026-05-07 01:20 | 27.92381 | 49.80534 | 11876 ft | 140 kts | 148° |
| 2026-05-07 01:20 | 27.91608 | 49.81215 | 11865 ft | 141 kts | 148° |
| 2026-05-07 01:20 | 27.90834 | 49.81899 | 11869 ft | 140 kts | 148° |
| 2026-05-07 01:21 | 27.90064 | 49.82577 | 11864 ft | 140 kts | 148° |
| 2026-05-07 01:21 | 27.89305 | 49.83245 | 11864 ft | 140 kts | 148° |
| 2026-05-07 01:21 | 27.88536 | 49.83923 | 11864 ft | 140 kts | 148° |
| 2026-05-07 01:21 | 27.87762 | 49.84604 | 11851 ft | 141 kts | 148° |
| 2026-05-07 01:22 | 27.86989 | 49.85285 | 11851 ft | 141 kts | 148° |
| 2026-05-07 01:22 | 27.86216 | 49.85966 | 11851 ft | 141 kts | 148° |
| 2026-05-07 01:22 | 27.85447 | 49.86642 | 11850 ft | 140 kts | 148° |
| 2026-05-07 01:22 | 27.84678 | 49.87320 | 11849 ft | 140 kts | 148° |
| 2026-05-07 01:23 | 27.83910 | 49.87996 | 11849 ft | 140 kts | 148° |
| 2026-05-07 01:23 | 27.83141 | 49.88673 | 11852 ft | 140 kts | 148° |
| 2026-05-07 01:23 | 27.82372 | 49.89349 | 11850 ft | 140 kts | 148° |
| 2026-05-07 01:23 | 27.81602 | 49.90026 | 11854 ft | 140 kts | 148° |
| 2026-05-07 01:24 | 27.80836 | 49.90701 | 11855 ft | 140 kts | 148° |
| 2026-05-07 01:24 | 27.80070 | 49.91374 | 11855 ft | 139 kts | 148° |
| 2026-05-07 01:24 | 27.79304 | 49.92047 | 11855 ft | 139 kts | 148° |
| 2026-05-07 01:24 | 27.78537 | 49.92721 | 11858 ft | 139 kts | 148° |
| 2026-05-07 01:25 | 27.77771 | 49.93395 | 11859 ft | 139 kts | 148° |
| 2026-05-07 01:25 | 27.77018 | 49.94056 | 11858 ft | 139 kts | 148° |
| 2026-05-07 01:25 | 27.76253 | 49.94728 | 11859 ft | 139 kts | 148° |
| 2026-05-07 01:25 | 27.75486 | 49.95402 | 11857 ft | 139 kts | 148° |
| 2026-05-07 01:26 | 27.74720 | 49.96075 | 11859 ft | 139 kts | 148° |
| 2026-05-07 01:26 | 27.73955 | 49.96747 | 11859 ft | 139 kts | 148° |
| 2026-05-07 01:26 | 27.73189 | 49.97419 | 11858 ft | 139 kts | 148° |
| 2026-05-07 01:26 | 27.72422 | 49.98093 | 11857 ft | 139 kts | 148° |
| 2026-05-07 01:27 | 27.71656 | 49.98764 | 11859 ft | 140 kts | 148° |
| 2026-05-07 01:27 | 27.70889 | 49.99437 | 11858 ft | 140 kts | 148° |
| 2026-05-07 01:27 | 27.70122 | 50.00110 | 11859 ft | 140 kts | 148° |
| 2026-05-07 01:27 | 27.69355 | 50.00782 | 11852 ft | 140 kts | 148° |
| 2026-05-07 01:28 | 27.68592 | 50.01453 | 11853 ft | 141 kts | 148° |
| 2026-05-07 01:28 | 27.67819 | 50.02131 | 11855 ft | 141 kts | 148° |
| 2026-05-07 01:28 | 27.67046 | 50.02808 | 11853 ft | 141 kts | 148° |
| 2026-05-07 01:28 | 27.66273 | 50.03485 | 11855 ft | 141 kts | 148° |
| 2026-05-07 01:29 | 27.65501 | 50.04161 | 11855 ft | 141 kts | 148° |
| 2026-05-07 01:29 | 27.64728 | 50.04839 | 11855 ft | 141 kts | 148° |
| 2026-05-07 01:29 | 27.63955 | 50.05516 | 11854 ft | 141 kts | 148° |
| 2026-05-07 01:29 | 27.63181 | 50.06194 | 11858 ft | 140 kts | 148° |
| 2026-05-07 01:30 | 27.62409 | 50.06871 | 11859 ft | 140 kts | 148° |
| 2026-05-07 01:30 | 27.61638 | 50.07545 | 11858 ft | 140 kts | 148° |
| 2026-05-07 01:30 | 27.60868 | 50.08219 | 11858 ft | 140 kts | 148° |
| 2026-05-07 01:30 | 27.60096 | 50.08894 | 11852 ft | 140 kts | 147° |
| 2026-05-07 01:31 | 27.59324 | 50.09570 | 11852 ft | 140 kts | 147° |
| 2026-05-07 01:31 | 27.58553 | 50.10245 | 11852 ft | 140 kts | 147° |
| 2026-05-07 01:31 | 27.57781 | 50.10920 | 11852 ft | 140 kts | 147° |
| 2026-05-07 01:31 | 27.57010 | 50.11594 | 11853 ft | 140 kts | 147° |
| 2026-05-07 01:32 | 27.56240 | 50.12268 | 11854 ft | 140 kts | 147° |
| 2026-05-07 01:32 | 27.55472 | 50.12939 | 11853 ft | 140 kts | 147° |
| 2026-05-07 01:32 | 27.54714 | 50.13602 | 11853 ft | 140 kts | 147° |
| 2026-05-07 01:32 | 27.53946 | 50.14272 | 11851 ft | 140 kts | 147° |
| 2026-05-07 01:33 | 27.53177 | 50.14944 | 11851 ft | 140 kts | 147° |
| 2026-05-07 01:33 | 27.52409 | 50.15615 | 11851 ft | 140 kts | 147° |
| 2026-05-07 01:33 | 27.51641 | 50.16285 | 11852 ft | 140 kts | 147° |
| 2026-05-07 01:33 | 27.50868 | 50.16959 | 11857 ft | 140 kts | 147° |
| 2026-05-07 01:34 | 27.50098 | 50.17632 | 11857 ft | 140 kts | 147° |
| 2026-05-07 01:34 | 27.49328 | 50.18304 | 11857 ft | 140 kts | 147° |
| 2026-05-07 01:34 | 27.48558 | 50.18977 | 11857 ft | 140 kts | 147° |
| 2026-05-07 01:34 | 27.47787 | 50.19650 | 11852 ft | 140 kts | 147° |
| 2026-05-07 01:35 | 27.47017 | 50.20322 | 11852 ft | 140 kts | 147° |
| 2026-05-07 01:35 | 27.46244 | 50.20995 | 11852 ft | 140 kts | 147° |
| 2026-05-07 01:35 | 27.45474 | 50.21668 | 11852 ft | 140 kts | 147° |
| 2026-05-07 01:35 | 27.44704 | 50.22339 | 11851 ft | 140 kts | 147° |
| 2026-05-07 01:36 | 27.43934 | 50.23011 | 11851 ft | 140 kts | 147° |
| 2026-05-07 01:36 | 27.43164 | 50.23681 | 11851 ft | 140 kts | 147° |
| 2026-05-07 01:36 | 27.42394 | 50.24353 | 11853 ft | 140 kts | 147° |
| 2026-05-07 01:36 | 27.41625 | 50.25023 | 11857 ft | 139 kts | 147° |
| 2026-05-07 01:37 | 27.40865 | 50.25684 | 11856 ft | 139 kts | 147° |
| 2026-05-07 01:37 | 27.40101 | 50.26351 | 11856 ft | 139 kts | 147° |
| 2026-05-07 01:37 | 27.39336 | 50.27016 | 11856 ft | 139 kts | 147° |
| 2026-05-07 01:37 | 27.38569 | 50.27684 | 11852 ft | 139 kts | 147° |
| 2026-05-07 01:38 | 27.37802 | 50.28351 | 11854 ft | 139 kts | 147° |
| 2026-05-07 01:38 | 27.37036 | 50.29018 | 11852 ft | 139 kts | 147° |
| 2026-05-07 01:38 | 27.36268 | 50.29687 | 11851 ft | 139 kts | 147° |
| 2026-05-07 01:38 | 27.35501 | 50.30355 | 11855 ft | 140 kts | 147° |
| 2026-05-07 01:39 | 27.34732 | 50.31023 | 11852 ft | 140 kts | 147° |
| 2026-05-07 01:39 | 27.33964 | 50.31691 | 11852 ft | 139 kts | 146° |
| 2026-05-07 01:39 | 27.33195 | 50.32360 | 11852 ft | 139 kts | 146° |
| 2026-05-07 01:39 | 27.32434 | 50.33022 | 11852 ft | 140 kts | 146° |
| 2026-05-07 01:40 | 27.31665 | 50.33690 | 11852 ft | 140 kts | 146° |
| 2026-05-07 01:40 | 27.30895 | 50.34359 | 11853 ft | 140 kts | 146° |
| 2026-05-07 01:40 | 27.30125 | 50.35028 | 11854 ft | 140 kts | 146° |
| 2026-05-07 01:40 | 27.29354 | 50.35698 | 11854 ft | 140 kts | 146° |
| 2026-05-07 01:41 | 27.28582 | 50.36368 | 11853 ft | 140 kts | 146° |
| 2026-05-07 01:41 | 27.27811 | 50.37038 | 11856 ft | 140 kts | 146° |
| 2026-05-07 01:41 | 27.27040 | 50.37707 | 11853 ft | 140 kts | 146° |
| 2026-05-07 01:41 | 27.26270 | 50.38376 | 11855 ft | 140 kts | 146° |
| 2026-05-07 01:42 | 27.25501 | 50.39044 | 11852 ft | 140 kts | 146° |
| 2026-05-07 01:42 | 27.24730 | 50.39713 | 11855 ft | 140 kts | 146° |
| 2026-05-07 01:42 | 27.23960 | 50.40381 | 11852 ft | 140 kts | 146° |
| 2026-05-07 01:42 | 27.23192 | 50.41048 | 11858 ft | 139 kts | 146° |
| 2026-05-07 01:43 | 27.22434 | 50.41705 | 11858 ft | 139 kts | 146° |
| 2026-05-07 01:43 | 27.21665 | 50.42372 | 11857 ft | 139 kts | 146° |
| 2026-05-07 01:43 | 27.20900 | 50.43035 | 11857 ft | 139 kts | 146° |
| 2026-05-07 01:43 | 27.20132 | 50.43701 | 11852 ft | 139 kts | 146° |
| 2026-05-07 01:44 | 27.19365 | 50.44366 | 11852 ft | 139 kts | 146° |
| 2026-05-07 01:44 | 27.18597 | 50.45031 | 11852 ft | 139 kts | 146° |
| 2026-05-07 01:44 | 27.17830 | 50.45696 | 11851 ft | 139 kts | 146° |
| 2026-05-07 01:44 | 27.17060 | 50.46363 | 11848 ft | 140 kts | 146° |
| 2026-05-07 01:45 | 27.16290 | 50.47030 | 11848 ft | 140 kts | 146° |
| 2026-05-07 01:45 | 27.15781 | 50.47471 | 11848 ft | 140 kts | 146° |
| 2026-05-07 01:45 | 27.14751 | 50.48363 | 11848 ft | 140 kts | 145° |
| 2026-05-07 01:45 | 27.14240 | 50.48805 | 11851 ft | 140 kts | 145° |
| 2026-05-07 01:46 | 27.13470 | 50.49472 | 11853 ft | 140 kts | 145° |
| 2026-05-07 01:46 | 27.12700 | 50.50138 | 11850 ft | 140 kts | 145° |
| 2026-05-07 01:46 | 27.11930 | 50.50804 | 11849 ft | 140 kts | 145° |
| 2026-05-07 01:46 | 27.11161 | 50.51470 | 11847 ft | 140 kts | 145° |
| 2026-05-07 01:47 | 27.10391 | 50.52136 | 11848 ft | 140 kts | 145° |
| 2026-05-07 01:47 | 27.09619 | 50.52804 | 11848 ft | 140 kts | 145° |
| 2026-05-07 01:47 | 27.08848 | 50.53470 | 11848 ft | 140 kts | 144° |
| 2026-05-07 01:47 | 27.08078 | 50.54136 | 11847 ft | 140 kts | 144° |
| 2026-05-07 01:48 | 27.07305 | 50.54805 | 11847 ft | 140 kts | 144° |
| 2026-05-07 01:48 | 27.06534 | 50.55471 | 11850 ft | 140 kts | 144° |
| 2026-05-07 01:48 | 27.05760 | 50.56139 | 11847 ft | 140 kts | 144° |
| 2026-05-07 01:48 | 27.04988 | 50.56806 | 11845 ft | 140 kts | 144° |
| 2026-05-07 01:49 | 27.04216 | 50.57473 | 11837 ft | 140 kts | 144° |
| 2026-05-07 01:49 | 27.03445 | 50.58139 | 11836 ft | 140 kts | 144° |
| 2026-05-07 01:49 | 27.02675 | 50.58804 | 11836 ft | 140 kts | 144° |
| 2026-05-07 01:49 | 27.01904 | 50.59469 | 11831 ft | 140 kts | 144° |
| 2026-05-07 01:50 | 27.01144 | 50.60126 | 11832 ft | 140 kts | 144° |
| 2026-05-07 01:50 | 27.00373 | 50.60791 | 11831 ft | 139 kts | 144° |
| 2026-05-07 01:50 | 26.99604 | 50.61455 | 11831 ft | 139 kts | 144° |
| 2026-05-07 01:50 | 26.98835 | 50.62118 | 11831 ft | 139 kts | 144° |
| 2026-05-07 01:51 | 26.98068 | 50.62780 | 11834 ft | 139 kts | 144° |
| 2026-05-07 01:51 | 26.97300 | 50.63442 | 11833 ft | 139 kts | 144° |
| 2026-05-07 01:51 | 26.96535 | 50.64102 | 11840 ft | 138 kts | 144° |
| 2026-05-07 01:51 | 26.95771 | 50.64761 | 11843 ft | 139 kts | 144° |
| 2026-05-07 01:52 | 26.95018 | 50.65409 | 11849 ft | 138 kts | 144° |
| 2026-05-07 01:52 | 26.94255 | 50.66067 | 11849 ft | 138 kts | 144° |
| 2026-05-07 01:52 | 26.93491 | 50.66725 | 11849 ft | 138 kts | 144° |
| 2026-05-07 01:52 | 26.92671 | 50.67269 | 11842 ft | 137 kts | 169° |
| 2026-05-07 01:53 | 26.91766 | 50.67129 | 11861 ft | 133 kts | 211° |
| 2026-05-07 01:53 | 26.91183 | 50.66347 | 11789 ft | 136 kts | 251° |
| 2026-05-07 01:53 | 26.91031 | 50.65273 | 11668 ft | 143 kts | 253° |
| 2026-05-07 01:53 | 26.90419 | 50.64399 | 11548 ft | 149 kts | 211° |
| 2026-05-07 01:54 | 26.89402 | 50.64201 | 11435 ft | 154 kts | 174° |
| 2026-05-07 01:54 | 26.88326 | 50.64316 | 11311 ft | 156 kts | 182° |
| 2026-05-07 01:54 | 26.87256 | 50.64210 | 11190 ft | 157 kts | 189° |
| 2026-05-07 01:54 | 26.86157 | 50.64025 | 11040 ft | 162 kts | 190° |
| 2026-05-07 01:55 | 26.85028 | 50.63823 | 10871 ft | 166 kts | 190° |
| 2026-05-07 01:55 | 26.83876 | 50.63618 | 10696 ft | 169 kts | 190° |
| 2026-05-07 01:55 | 26.82710 | 50.63412 | 10517 ft | 171 kts | 190° |
| 2026-05-07 01:55 | 26.81531 | 50.63205 | 10341 ft | 172 kts | 190° |
| 2026-05-07 01:56 | 26.80349 | 50.62998 | 10170 ft | 172 kts | 190° |
| 2026-05-07 01:56 | 26.79167 | 50.62791 | 9996 ft | 172 kts | 190° |
| 2026-05-07 01:56 | 26.77984 | 50.62583 | 9814 ft | 172 kts | 190° |
| 2026-05-07 01:56 | 26.76798 | 50.62374 | 9640 ft | 173 kts | 190° |
| 2026-05-07 01:57 | 26.75607 | 50.62166 | 9469 ft | 173 kts | 190° |
| 2026-05-07 01:57 | 26.74418 | 50.61957 | 9293 ft | 172 kts | 190° |
| 2026-05-07 01:57 | 26.73236 | 50.61749 | 9113 ft | 172 kts | 190° |
| 2026-05-07 01:57 | 26.72055 | 50.61542 | 8939 ft | 172 kts | 190° |
| 2026-05-07 01:58 | 26.70878 | 50.61336 | 8767 ft | 171 kts | 190° |
| 2026-05-07 01:58 | 26.69717 | 50.61132 | 8593 ft | 171 kts | 190° |
| 2026-05-07 01:58 | 26.68544 | 50.60928 | 8414 ft | 170 kts | 190° |
| 2026-05-07 01:58 | 26.67372 | 50.60723 | 8238 ft | 170 kts | 190° |
| 2026-05-07 01:59 | 26.66212 | 50.60517 | 8068 ft | 169 kts | 190° |
| 2026-05-07 01:59 | 26.65048 | 50.60314 | 7892 ft | 169 kts | 190° |
| 2026-05-07 01:59 | 26.63883 | 50.60110 | 7711 ft | 169 kts | 190° |
| 2026-05-07 01:59 | 26.62723 | 50.59908 | 7537 ft | 169 kts | 190° |
| 2026-05-07 02:00 | 26.61566 | 50.59705 | 7366 ft | 168 kts | 190° |
| 2026-05-07 02:00 | 26.60409 | 50.59502 | 7191 ft | 168 kts | 190° |
| 2026-05-07 02:00 | 26.59257 | 50.59300 | 7012 ft | 168 kts | 190° |
| 2026-05-07 02:00 | 26.58105 | 50.59100 | 6835 ft | 167 kts | 190° |
| 2026-05-07 02:01 | 26.56956 | 50.58899 | 6665 ft | 166 kts | 190° |
| 2026-05-07 02:01 | 26.55827 | 50.58701 | 6564 ft | 162 kts | 190° |
| 2026-05-07 02:01 | 26.54711 | 50.58638 | 6455 ft | 161 kts | 172° |
| 2026-05-07 02:01 | 26.53702 | 50.59084 | 6356 ft | 158 kts | 144° |
| 2026-05-07 02:02 | 26.52967 | 50.59970 | 6276 ft | 154 kts | 122° |
| 2026-05-07 02:02 | 26.52377 | 50.60985 | 6205 ft | 157 kts | 121° |
| 2026-05-07 02:02 | 26.51777 | 50.62039 | 6132 ft | 163 kts | 121° |
| 2026-05-07 02:02 | 26.51162 | 50.63119 | 6059 ft | 166 kts | 121° |
| 2026-05-07 02:03 | 26.50534 | 50.64216 | 5985 ft | 168 kts | 121° |
| 2026-05-07 02:03 | 26.49898 | 50.65325 | 5910 ft | 170 kts | 121° |
| 2026-05-07 02:03 | 26.49258 | 50.66441 | 5832 ft | 171 kts | 121° |
| 2026-05-07 02:03 | 26.48615 | 50.67561 | 5759 ft | 171 kts | 121° |
| 2026-05-07 02:04 | 26.47968 | 50.68686 | 5679 ft | 172 kts | 121° |
| 2026-05-07 02:04 | 26.47332 | 50.69794 | 5610 ft | 172 kts | 121° |
| 2026-05-07 02:04 | 26.46687 | 50.70919 | 5531 ft | 172 kts | 121° |
| 2026-05-07 02:04 | 26.46040 | 50.72044 | 5456 ft | 172 kts | 121° |
| 2026-05-07 02:05 | 26.45393 | 50.73171 | 5382 ft | 172 kts | 121° |
| 2026-05-07 02:05 | 26.44576 | 50.74143 | 5302 ft | 173 kts | 144° |
| 2026-05-07 02:05 | 26.43462 | 50.74645 | 5227 ft | 174 kts | 171° |
| 2026-05-07 02:05 | 26.42267 | 50.74565 | 5156 ft | 172 kts | 198° |
| 2026-05-07 02:06 | 26.41196 | 50.74003 | 5087 ft | 170 kts | 211° |
| 2026-05-07 02:06 | 26.40163 | 50.73363 | 5012 ft | 170 kts | 212° |
| 2026-05-07 02:06 | 26.39129 | 50.72717 | 4933 ft | 170 kts | 212° |
| 2026-05-07 02:06 | 26.38052 | 50.72208 | 4834 ft | 173 kts | 193° |
| 2026-05-07 02:07 | 26.36820 | 50.72236 | 4685 ft | 178 kts | 166° |
| 2026-05-07 02:07 | 26.34960 | 50.73935 | 4386 ft | 178 kts | 121° |
| 2026-05-07 02:07 | 26.34289 | 50.75099 | 4235 ft | 179 kts | 119° |
| 2026-05-07 02:08 | 26.33620 | 50.76274 | 4085 ft | 179 kts | 119° |
| 2026-05-07 02:08 | 26.32948 | 50.77447 | 3935 ft | 180 kts | 119° |
| 2026-05-07 02:08 | 26.32269 | 50.78625 | 3784 ft | 180 kts | 120° |
| 2026-05-07 02:08 | 26.31591 | 50.79801 | 3630 ft | 180 kts | 119° |
| 2026-05-07 02:09 | 26.30893 | 50.80952 | 3476 ft | 181 kts | 129° |
| 2026-05-07 02:09 | 26.29798 | 50.81635 | 3324 ft | 184 kts | 169° |
| 2026-05-07 02:09 | 26.28551 | 50.81466 | 3175 ft | 182 kts | 207° |
| 2026-05-07 02:09 | 26.27421 | 50.80858 | 3031 ft | 181 kts | 205° |
| 2026-05-07 02:10 | 26.26228 | 50.80393 | 2879 ft | 180 kts | 199° |
| 2026-05-07 02:10 | 26.25030 | 50.80015 | 2731 ft | 178 kts | 198° |
| 2026-05-07 02:10 | 26.23847 | 50.79653 | 2582 ft | 178 kts | 198° |
| 2026-05-07 02:10 | 26.22657 | 50.79282 | 2432 ft | 177 kts | 198° |
| 2026-05-07 02:11 | 26.21538 | 50.78753 | 2278 ft | 173 kts | 218° |
| 2026-05-07 02:11 | 26.20710 | 50.77798 | 2007 ft | 170 kts | 243° |
| 2026-05-07 02:11 | 26.20306 | 50.76608 | 1709 ft | 161 kts | 265° |
| 2026-05-07 02:11 | 26.20334 | 50.75394 | 1414 ft | 155 kts | 286° |
| 2026-05-07 02:12 | 26.20740 | 50.74351 | 1335 ft | 138 kts | 307° |
| 2026-05-07 02:12 | 26.21371 | 50.73626 | 1333 ft | 125 kts | 310° |
| 2026-05-07 02:12 | 26.21806 | 50.72769 | 1044 ft | 136 kts | 306° |
| 2026-05-07 02:12 | 26.22279 | 50.71892 | 1053 ft | 122 kts | 304° |
| 2026-05-07 02:13 | 26.22665 | 50.71132 | 1163 ft | 106 kts | 303° |
| 2026-05-07 02:13 | 26.23025 | 50.70458 | 1207 ft | 99 kts | 304° |
| 2026-05-07 02:13 | 26.23376 | 50.69823 | 1077 ft | 100 kts | 305° |
| 2026-05-07 02:13 | 26.23760 | 50.69132 | 954 ft | 110 kts | 305° |
| 2026-05-07 02:14 | 26.24167 | 50.68420 | 806 ft | 106 kts | 305° |
| 2026-05-07 02:14 | 26.24538 | 50.67775 | 668 ft | 88 kts | 306° |
| 2026-05-07 02:14 | 26.24846 | 50.67237 | 564 ft | 79 kts | 306° |
| 2026-05-07 02:14 | 26.25144 | 50.66718 | 464 ft | 81 kts | 311° |
| 2026-05-07 02:15 | 26.25456 | 50.66177 | 351 ft | 84 kts | 309° |
| 2026-05-07 02:15 | 26.25769 | 50.65634 | 242 ft | 82 kts | 306° |
| 2026-05-07 02:15 | 26.26073 | 50.65103 | 134 ft | 82 kts | 304° |
| 2026-05-07 02:15 | 26.26387 | 50.64557 | 37 ft | 81 kts | 304° |
| 2026-05-07 02:16 | 26.26670 | 50.64072 | 11 ft | 65 kts | 306° |
| 2026-05-07 02:16 | 26.26866 | 50.63741 | 10 ft | 41 kts | 302° |
| 2026-05-07 02:16 | 26.26967 | 50.63521 | 9 ft | 21 kts | 259° |
| 2026-05-07 02:16 | 26.26910 | 50.63455 | 11 ft | 7 kts | 221° |
| 2026-05-07 02:17 | 26.26879 | 50.63427 | 13 ft | 5 kts | 216° |
| 2026-05-07 02:17 | 26.26870 | 50.63421 | 13 ft | 0 kts | 205° |
| 2026-05-07 02:18 | 26.26867 | 50.63419 | 13 ft | 2 kts | 217° |
| 2026-05-07 02:18 | 26.26840 | 50.63395 | 14 ft | 8 kts | 221° |
| 2026-05-07 02:18 | 26.26786 | 50.63343 | 15 ft | 12 kts | 249° |
| 2026-05-07 02:18 | 26.26824 | 50.63241 | 15 ft | 17 kts | 307° |
| 2026-05-07 02:19 | 26.26906 | 50.63157 | 15 ft | 16 kts | 14° |
| 2026-05-07 02:19 | 26.27013 | 50.63119 | 15 ft | 19 kts | 308° |
| 2026-05-07 02:19 | 26.27086 | 50.62996 | 17 ft | 19 kts | 304° |
| 2026-05-07 02:19 | 26.27169 | 50.62880 | 15 ft | 20 kts | 307° |
| 2026-05-07 02:20 | 26.27243 | 50.62748 | 13 ft | 21 kts | 302° |
| 2026-05-07 02:20 | 26.27282 | 50.62683 | 12 ft | 0 kts | 303° |
| 2026-05-07 02:20 | 26.27287 | 50.62673 | 12 ft | 7 kts | 301° |
| 2026-05-07 02:20 | 26.27334 | 50.62590 | 12 ft | 14 kts | 303° |
| 2026-05-07 02:21 | 26.27383 | 50.62505 | 11 ft | 10 kts | 300° |
| 2026-05-07 02:21 | 26.27396 | 50.62446 | 11 ft | 9 kts | 218° |
| 2026-05-07 02:21 | 26.27356 | 50.62417 | 11 ft | 4 kts | 211° |
| 2026-05-07 02:21 | 26.27352 | 50.62414 | 11 ft | 0 kts | 213° |